sensor_id;sensor_type;location;lat;lon;timestamp;pressure;altitude;pressure_sealevel;temperature;humidity
80781;BME280;70341;56.408;10.874;2023-05-29T00:01:04;102234.34;;;8.63;63.44
80781;BME280;70341;56.408;10.874;2023-05-29T00:03:31;102236.13;;;8.62;63.03
80781;BME280;70341;56.408;10.874;2023-05-29T00:06:02;102233.11;;;8.60;62.89
80781;BME280;70341;56.408;10.874;2023-05-29T00:08:29;102238.39;;;8.65;62.86
80781;BME280;70341;56.408;10.874;2023-05-29T00:10:56;102240.81;;;8.71;62.81
80781;BME280;70341;56.408;10.874;2023-05-29T00:13:23;102243.48;;;8.73;62.70
80781;BME280;70341;56.408;10.874;2023-05-29T00:15:51;102240.83;;;8.69;62.59
80781;BME280;70341;56.408;10.874;2023-05-29T00:18:17;102241.75;;;8.67;62.81
80781;BME280;70341;56.408;10.874;2023-05-29T00:20:44;102245.67;;;8.64;62.76
80781;BME280;70341;56.408;10.874;2023-05-29T00:23:11;102242.50;;;8.63;62.46
80781;BME280;70341;56.408;10.874;2023-05-29T00:25:38;102246.55;;;8.64;62.74
80781;BME280;70341;56.408;10.874;2023-05-29T00:28:07;102243.21;;;8.62;62.82
80781;BME280;70341;56.408;10.874;2023-05-29T00:30:34;102242.70;;;8.61;63.37
80781;BME280;70341;56.408;10.874;2023-05-29T00:33:02;102242.86;;;8.57;63.58
80781;BME280;70341;56.408;10.874;2023-05-29T00:35:29;102244.67;;;8.54;63.48
80781;BME280;70341;56.408;10.874;2023-05-29T00:37:56;102252.83;;;8.54;63.19
80781;BME280;70341;56.408;10.874;2023-05-29T00:40:25;102253.54;;;8.53;63.49
80781;BME280;70341;56.408;10.874;2023-05-29T00:42:52;102252.84;;;8.52;63.38
80781;BME280;70341;56.408;10.874;2023-05-29T00:45:19;102254.27;;;8.51;63.59
80781;BME280;70341;56.408;10.874;2023-05-29T00:47:47;102253.23;;;8.49;63.21
80781;BME280;70341;56.408;10.874;2023-05-29T00:50:14;102252.71;;;8.48;63.53
80781;BME280;70341;56.408;10.874;2023-05-29T00:52:45;102251.12;;;8.45;63.42
80781;BME280;70341;56.408;10.874;2023-05-29T00:55:14;102254.48;;;8.44;63.60
80781;BME280;70341;56.408;10.874;2023-05-29T00:57:41;102254.13;;;8.43;63.31
80781;BME280;70341;56.408;10.874;2023-05-29T01:00:09;102263.70;;;8.42;63.15
80781;BME280;70341;56.408;10.874;2023-05-29T01:02:37;102265.31;;;8.41;63.29
80781;BME280;70341;56.408;10.874;2023-05-29T01:05:08;102266.60;;;8.35;63.38
80781;BME280;70341;56.408;10.874;2023-05-29T01:07:38;102275.08;;;8.31;63.22
80781;BME280;70341;56.408;10.874;2023-05-29T01:10:09;102280.26;;;8.26;63.71
80781;BME280;70341;56.408;10.874;2023-05-29T01:12:40;102280.98;;;8.20;63.79
80781;BME280;70341;56.408;10.874;2023-05-29T01:18:26;102268.84;;;8.10;64.20
80781;BME280;70341;56.408;10.874;2023-05-29T01:21:59;102262.48;;;8.08;64.38
80781;BME280;70341;56.408;10.874;2023-05-29T01:25:01;102266.38;;;8.09;64.47
80781;BME280;70341;56.408;10.874;2023-05-29T01:27:35;102266.71;;;8.07;64.19
80781;BME280;70341;56.408;10.874;2023-05-29T01:30:09;102264.27;;;8.03;64.50
80781;BME280;70341;56.408;10.874;2023-05-29T01:32:40;102266.95;;;7.98;64.55
80781;BME280;70341;56.408;10.874;2023-05-29T01:35:09;102258.13;;;7.89;64.49
80781;BME280;70341;56.408;10.874;2023-05-29T01:37:36;102267.52;;;7.87;64.70
80781;BME280;70341;56.408;10.874;2023-05-29T01:40:05;102267.90;;;7.83;64.87
80781;BME280;70341;56.408;10.874;2023-05-29T01:42:32;102263.48;;;7.78;65.67
80781;BME280;70341;56.408;10.874;2023-05-29T01:45:01;102267.73;;;7.76;65.67
80781;BME280;70341;56.408;10.874;2023-05-29T01:47:29;102266.68;;;7.75;65.97
80781;BME280;70341;56.408;10.874;2023-05-29T01:50:00;102268.80;;;7.76;65.84
80781;BME280;70341;56.408;10.874;2023-05-29T01:52:27;102269.51;;;7.77;65.72
80781;BME280;70341;56.408;10.874;2023-05-29T01:54:55;102274.10;;;7.77;65.73
80781;BME280;70341;56.408;10.874;2023-05-29T01:57:25;102273.39;;;7.81;65.79
80781;BME280;70341;56.408;10.874;2023-05-29T01:59:54;102271.43;;;7.83;65.54
80781;BME280;70341;56.408;10.874;2023-05-29T02:02:22;102269.48;;;7.86;65.58
80781;BME280;70341;56.408;10.874;2023-05-29T02:04:49;102269.83;;;7.85;65.19
80781;BME280;70341;56.408;10.874;2023-05-29T02:07:16;102268.08;;;7.84;65.43
80781;BME280;70341;56.408;10.874;2023-05-29T02:09:43;102265.60;;;7.84;65.72
80781;BME280;70341;56.408;10.874;2023-05-29T02:12:10;102270.04;;;7.83;65.46
80781;BME280;70341;56.408;10.874;2023-05-29T02:14:37;102271.45;;;7.82;65.50
80781;BME280;70341;56.408;10.874;2023-05-29T02:17:04;102273.20;;;7.80;65.51
80781;BME280;70341;56.408;10.874;2023-05-29T02:19:31;102265.60;;;7.78;65.82
80781;BME280;70341;56.408;10.874;2023-05-29T02:21:58;102267.38;;;7.79;65.69
80781;BME280;70341;56.408;10.874;2023-05-29T02:24:24;102270.74;;;7.81;66.04
80781;BME280;70341;56.408;10.874;2023-05-29T02:26:51;102275.69;;;7.83;65.64
80781;BME280;70341;56.408;10.874;2023-05-29T02:29:18;102277.81;;;7.83;66.06
80781;BME280;70341;56.408;10.874;2023-05-29T02:31:45;102273.21;;;7.82;65.68
80781;BME280;70341;56.408;10.874;2023-05-29T02:34:12;102275.17;;;7.78;66.04
80781;BME280;70341;56.408;10.874;2023-05-29T02:36:39;102282.58;;;7.80;66.11
80781;BME280;70341;56.408;10.874;2023-05-29T02:39:06;102285.77;;;7.82;66.13
80781;BME280;70341;56.408;10.874;2023-05-29T02:41:33;102284.52;;;7.85;65.95
80781;BME280;70341;56.408;10.874;2023-05-29T02:44:00;102287.70;;;7.86;65.91
80781;BME280;70341;56.408;10.874;2023-05-29T02:46:27;102283.45;;;7.87;65.82
80781;BME280;70341;56.408;10.874;2023-05-29T02:48:54;102277.26;;;7.86;66.06
80781;BME280;70341;56.408;10.874;2023-05-29T02:51:21;102282.39;;;7.87;65.37
80781;BME280;70341;56.408;10.874;2023-05-29T02:53:48;102286.44;;;7.90;65.67
80781;BME280;70341;56.408;10.874;2023-05-29T02:56:15;102283.42;;;7.91;65.25
80781;BME280;70341;56.408;10.874;2023-05-29T02:58:43;102274.77;;;7.89;65.37
80781;BME280;70341;56.408;10.874;2023-05-29T03:01:10;102274.95;;;7.89;65.08
80781;BME280;70341;56.408;10.874;2023-05-29T03:03:37;102281.49;;;7.88;65.27
80781;BME280;70341;56.408;10.874;2023-05-29T03:06:04;102285.38;;;7.89;65.30
80781;BME280;70341;56.408;10.874;2023-05-29T03:08:31;102286.80;;;7.88;65.59
80781;BME280;70341;56.408;10.874;2023-05-29T03:10:58;102287.48;;;7.92;65.60
80781;BME280;70341;56.408;10.874;2023-05-29T03:13:25;102289.45;;;7.96;65.55
80781;BME280;70341;56.408;10.874;2023-05-29T03:15:52;102292.25;;;8.00;65.18
80781;BME280;70341;56.408;10.874;2023-05-29T03:18:19;102292.05;;;8.02;65.16
80781;BME280;70341;56.408;10.874;2023-05-29T03:20:46;102293.62;;;8.07;65.42
80781;BME280;70341;56.408;10.874;2023-05-29T03:23:14;102294.32;;;8.10;65.20
80781;BME280;70341;56.408;10.874;2023-05-29T03:25:41;102301.89;;;8.20;65.00
80781;BME280;70341;56.408;10.874;2023-05-29T03:28:08;102303.80;;;8.26;64.99
80781;BME280;70341;56.408;10.874;2023-05-29T03:30:35;102299.35;;;8.29;64.55
80781;BME280;70341;56.408;10.874;2023-05-29T03:33:02;102299.89;;;8.36;65.22
80781;BME280;70341;56.408;10.874;2023-05-29T03:35:30;102299.48;;;8.44;65.09
80781;BME280;70341;56.408;10.874;2023-05-29T03:37:58;102299.42;;;8.53;65.12
80781;BME280;70341;56.408;10.874;2023-05-29T03:40:25;102298.50;;;8.60;64.60
80781;BME280;70341;56.408;10.874;2023-05-29T03:42:51;102305.90;;;8.66;64.41
80781;BME280;70341;56.408;10.874;2023-05-29T03:45:18;102308.33;;;8.71;64.32
80781;BME280;70341;56.408;10.874;2023-05-29T03:47:45;102308.51;;;8.74;64.33
80781;BME280;70341;56.408;10.874;2023-05-29T03:50:13;102303.88;;;8.76;64.62
80781;BME280;70341;56.408;10.874;2023-05-29T03:52:43;102303.48;;;8.81;64.76
80781;BME280;70341;56.408;10.874;2023-05-29T03:55:10;102301.30;;;8.87;64.65
80781;BME280;70341;56.408;10.874;2023-05-29T03:57:37;102309.92;;;8.97;64.63
80781;BME280;70341;56.408;10.874;2023-05-29T04:00:06;102310.20;;;9.04;64.53
80781;BME280;70341;56.408;10.874;2023-05-29T04:02:33;102310.31;;;9.13;64.43
80781;BME280;70341;56.408;10.874;2023-05-29T04:05:01;102313.80;;;9.20;64.26
80781;BME280;70341;56.408;10.874;2023-05-29T04:07:29;102316.48;;;9.19;63.79
80781;BME280;70341;56.408;10.874;2023-05-29T04:09:56;102313.30;;;9.16;64.25
80781;BME280;70341;56.408;10.874;2023-05-29T04:12:23;102312.13;;;9.09;64.52
80781;BME280;70341;56.408;10.874;2023-05-29T04:14:50;102320.61;;;9.12;64.68
80781;BME280;70341;56.408;10.874;2023-05-29T04:17:17;102330.29;;;9.20;64.68
80781;BME280;70341;56.408;10.874;2023-05-29T04:19:44;102329.11;;;9.33;65.29
80781;BME280;70341;56.408;10.874;2023-05-29T04:22:12;102330.77;;;9.45;64.58
80781;BME280;70341;56.408;10.874;2023-05-29T04:24:40;102329.26;;;9.55;64.85
80781;BME280;70341;56.408;10.874;2023-05-29T04:27:09;102331.81;;;9.65;64.99
80781;BME280;70341;56.408;10.874;2023-05-29T04:29:36;102329.91;;;9.76;64.82
80781;BME280;70341;56.408;10.874;2023-05-29T04:32:07;102329.83;;;9.84;65.21
80781;BME280;70341;56.408;10.874;2023-05-29T04:34:34;102330.42;;;9.94;64.89
80781;BME280;70341;56.408;10.874;2023-05-29T04:37:05;102327.11;;;10.04;64.93
80781;BME280;70341;56.408;10.874;2023-05-29T04:39:33;102328.05;;;10.12;65.09
80781;BME280;70341;56.408;10.874;2023-05-29T04:42:00;102331.35;;;10.20;65.05
80781;BME280;70341;56.408;10.874;2023-05-29T04:44:27;102335.86;;;10.30;65.15
80781;BME280;70341;56.408;10.874;2023-05-29T04:46:55;102341.84;;;10.48;65.29
80781;BME280;70341;56.408;10.874;2023-05-29T04:49:22;102347.10;;;10.65;65.21
80781;BME280;70341;56.408;10.874;2023-05-29T04:51:50;102340.46;;;10.81;65.06
80781;BME280;70341;56.408;10.874;2023-05-29T04:54:18;102343.91;;;10.99;64.90
80781;BME280;70341;56.408;10.874;2023-05-29T04:56:46;102341.69;;;11.15;64.70
80781;BME280;70341;56.408;10.874;2023-05-29T04:59:13;102349.39;;;11.33;64.47
80781;BME280;70341;56.408;10.874;2023-05-29T05:01:40;102356.48;;;11.45;64.38
80781;BME280;70341;56.408;10.874;2023-05-29T05:04:07;102349.66;;;11.59;64.13
80781;BME280;70341;56.408;10.874;2023-05-29T05:06:34;102350.34;;;11.69;63.94
80781;BME280;70341;56.408;10.874;2023-05-29T05:09:01;102346.81;;;11.77;63.75
80781;BME280;70341;56.408;10.874;2023-05-29T05:11:28;102348.59;;;11.88;63.66
80781;BME280;70341;56.408;10.874;2023-05-29T05:13:55;102348.03;;;11.98;63.50
80781;BME280;70341;56.408;10.874;2023-05-29T05:16:23;102355.07;;;12.03;63.42
80781;BME280;70341;56.408;10.874;2023-05-29T05:18:50;102351.66;;;12.13;63.33
80781;BME280;70341;56.408;10.874;2023-05-29T05:21:19;102353.84;;;12.28;63.30
80781;BME280;70341;56.408;10.874;2023-05-29T05:23:48;102354.15;;;12.47;62.99
80781;BME280;70341;56.408;10.874;2023-05-29T05:26:25;102359.34;;;12.69;62.97
80781;BME280;70341;56.408;10.874;2023-05-29T05:28:52;102363.94;;;12.86;62.63
80781;BME280;70341;56.408;10.874;2023-05-29T05:31:19;102356.28;;;13.01;62.25
80781;BME280;70341;56.408;10.874;2023-05-29T05:33:46;102354.37;;;13.21;61.78
80781;BME280;70341;56.408;10.874;2023-05-29T05:36:14;102361.70;;;13.35;61.08
80781;BME280;70341;56.408;10.874;2023-05-29T05:38:41;102367.66;;;13.46;60.73
80781;BME280;70341;56.408;10.874;2023-05-29T05:41:08;102364.75;;;13.62;60.15
80781;BME280;70341;56.408;10.874;2023-05-29T05:43:35;102362.33;;;13.79;59.97
80781;BME280;70341;56.408;10.874;2023-05-29T05:46:02;102362.13;;;13.93;59.57
80781;BME280;70341;56.408;10.874;2023-05-29T05:48:29;102365.36;;;14.05;59.33
80781;BME280;70341;56.408;10.874;2023-05-29T05:50:56;102369.66;;;14.17;58.96
80781;BME280;70341;56.408;10.874;2023-05-29T05:53:24;102367.85;;;14.30;58.56
80781;BME280;70341;56.408;10.874;2023-05-29T05:55:51;102372.44;;;14.38;57.78
80781;BME280;70341;56.408;10.874;2023-05-29T05:58:19;102371.65;;;14.47;57.85
80781;BME280;70341;56.408;10.874;2023-05-29T06:00:45;102376.98;;;14.54;57.75
80781;BME280;70341;56.408;10.874;2023-05-29T06:03:12;102376.71;;;14.63;57.08
80781;BME280;70341;56.408;10.874;2023-05-29T06:05:40;102374.84;;;14.66;56.20
80781;BME280;70341;56.408;10.874;2023-05-29T06:08:07;102373.52;;;14.68;55.99
80781;BME280;70341;56.408;10.874;2023-05-29T06:10:34;102375.92;;;14.71;55.68
80781;BME280;70341;56.408;10.874;2023-05-29T06:13:01;102365.98;;;14.80;55.34
80781;BME280;70341;56.408;10.874;2023-05-29T06:15:28;102366.10;;;14.93;55.01
80781;BME280;70341;56.408;10.874;2023-05-29T06:17:56;102364.59;;;15.12;54.60
80781;BME280;70341;56.408;10.874;2023-05-29T06:20:24;102370.30;;;15.34;54.43
80781;BME280;70341;56.408;10.874;2023-05-29T06:22:52;102379.67;;;15.54;52.93
80781;BME280;70341;56.408;10.874;2023-05-29T06:25:19;102373.42;;;15.59;52.02
80781;BME280;70341;56.408;10.874;2023-05-29T06:27:46;102367.80;;;15.71;52.30
80781;BME280;70341;56.408;10.874;2023-05-29T06:30:14;102371.48;;;15.89;51.43
80781;BME280;70341;56.408;10.874;2023-05-29T06:32:41;102374.94;;;16.02;50.43
80781;BME280;70341;56.408;10.874;2023-05-29T06:35:08;102374.98;;;16.11;49.84
80781;BME280;70341;56.408;10.874;2023-05-29T06:37:36;102372.81;;;16.21;49.67
80781;BME280;70341;56.408;10.874;2023-05-29T06:40:03;102378.63;;;16.33;48.07
80781;BME280;70341;56.408;10.874;2023-05-29T06:42:30;102378.44;;;16.38;44.98
80781;BME280;70341;56.408;10.874;2023-05-29T06:44:57;102383.05;;;16.30;44.81
80781;BME280;70341;56.408;10.874;2023-05-29T06:47:24;102389.66;;;16.21;44.18
80781;BME280;70341;56.408;10.874;2023-05-29T06:49:51;102392.67;;;16.17;43.32
80781;BME280;70341;56.408;10.874;2023-05-29T06:52:18;102393.83;;;16.20;43.56
80781;BME280;70341;56.408;10.874;2023-05-29T06:54:45;102391.09;;;16.31;42.97
80781;BME280;70341;56.408;10.874;2023-05-29T06:57:12;102399.08;;;16.33;43.35
80781;BME280;70341;56.408;10.874;2023-05-29T06:59:39;102396.21;;;16.37;42.94
80781;BME280;70341;56.408;10.874;2023-05-29T07:02:07;102396.88;;;16.44;42.75
80781;BME280;70341;56.408;10.874;2023-05-29T07:04:34;102396.96;;;16.51;41.97
80781;BME280;70341;56.408;10.874;2023-05-29T07:07:01;102409.15;;;16.70;41.81
80781;BME280;70341;56.408;10.874;2023-05-29T07:09:28;102408.58;;;16.94;41.41
80781;BME280;70341;56.408;10.874;2023-05-29T07:11:55;102407.98;;;17.18;40.48
80781;BME280;70341;56.408;10.874;2023-05-29T07:14:22;102410.48;;;17.40;40.49
80781;BME280;70341;56.408;10.874;2023-05-29T07:16:49;102413.48;;;17.62;40.85
80781;BME280;70341;56.408;10.874;2023-05-29T07:19:16;102409.61;;;17.98;40.28
80781;BME280;70341;56.408;10.874;2023-05-29T07:21:48;102407.65;;;18.26;38.67
80781;BME280;70341;56.408;10.874;2023-05-29T07:24:15;102407.39;;;18.47;39.05
80781;BME280;70341;56.408;10.874;2023-05-29T07:26:42;102408.20;;;18.72;37.28
80781;BME280;70341;56.408;10.874;2023-05-29T07:29:09;102409.95;;;18.85;36.14
80781;BME280;70341;56.408;10.874;2023-05-29T07:31:38;102414.11;;;18.96;36.27
80781;BME280;70341;56.408;10.874;2023-05-29T07:34:05;102412.03;;;19.05;36.27
80781;BME280;70341;56.408;10.874;2023-05-29T07:36:32;102409.29;;;19.13;36.31
80781;BME280;70341;56.408;10.874;2023-05-29T07:38:59;102411.71;;;19.19;36.01
80781;BME280;70341;56.408;10.874;2023-05-29T07:41:26;102413.59;;;19.21;35.81
80781;BME280;70341;56.408;10.874;2023-05-29T07:43:53;102414.13;;;19.25;35.12
80781;BME280;70341;56.408;10.874;2023-05-29T07:46:21;102414.63;;;19.33;35.27
80781;BME280;70341;56.408;10.874;2023-05-29T07:48:48;102416.34;;;19.38;35.26
80781;BME280;70341;56.408;10.874;2023-05-29T07:51:15;102416.84;;;19.42;35.01
80781;BME280;70341;56.408;10.874;2023-05-29T07:53:44;102418.77;;;19.62;34.81
80781;BME280;70341;56.408;10.874;2023-05-29T07:56:11;102419.75;;;19.85;34.02
80781;BME280;70341;56.408;10.874;2023-05-29T07:58:38;102419.88;;;20.10;33.51
80781;BME280;70341;56.408;10.874;2023-05-29T08:01:05;102419.05;;;20.19;32.35
80781;BME280;70341;56.408;10.874;2023-05-29T08:03:32;102417.70;;;20.17;31.43
80781;BME280;70341;56.408;10.874;2023-05-29T08:05:59;102418.08;;;20.16;31.78
80781;BME280;70341;56.408;10.874;2023-05-29T08:08:26;102417.36;;;20.30;32.75
80781;BME280;70341;56.408;10.874;2023-05-29T08:10:54;102420.20;;;20.48;30.99
80781;BME280;70341;56.408;10.874;2023-05-29T08:13:21;102415.86;;;20.54;29.86
80781;BME280;70341;56.408;10.874;2023-05-29T08:15:48;102418.73;;;20.61;29.65
80781;BME280;70341;56.408;10.874;2023-05-29T08:18:15;102419.45;;;20.71;30.12
80781;BME280;70341;56.408;10.874;2023-05-29T08:20:42;102422.21;;;20.80;29.88
80781;BME280;70341;56.408;10.874;2023-05-29T08:23:09;102427.55;;;20.84;28.97
80781;BME280;70341;56.408;10.874;2023-05-29T08:25:36;102424.58;;;20.89;29.76
80781;BME280;70341;56.408;10.874;2023-05-29T08:28:03;102427.89;;;20.98;28.04
80781;BME280;70341;56.408;10.874;2023-05-29T08:30:30;102429.71;;;21.07;28.58
80781;BME280;70341;56.408;10.874;2023-05-29T08:32:57;102426.46;;;21.22;28.52
80781;BME280;70341;56.408;10.874;2023-05-29T08:35:24;102425.06;;;21.41;28.23
80781;BME280;70341;56.408;10.874;2023-05-29T08:37:51;102428.09;;;21.51;28.30
80781;BME280;70341;56.408;10.874;2023-05-29T08:40:19;102427.18;;;21.63;27.98
80781;BME280;70341;56.408;10.874;2023-05-29T08:42:56;102427.52;;;21.78;27.51
80781;BME280;70341;56.408;10.874;2023-05-29T08:45:24;102423.48;;;21.76;26.58
80781;BME280;70341;56.408;10.874;2023-05-29T08:47:53;102429.14;;;21.75;27.35
80781;BME280;70341;56.408;10.874;2023-05-29T08:50:21;102432.46;;;21.83;26.10
80781;BME280;70341;56.408;10.874;2023-05-29T08:52:49;102428.36;;;21.79;25.07
80781;BME280;70341;56.408;10.874;2023-05-29T08:55:16;102428.17;;;21.91;25.92
80781;BME280;70341;56.408;10.874;2023-05-29T08:57:44;102438.21;;;22.05;25.77
80781;BME280;70341;56.408;10.874;2023-05-29T09:00:12;102444.36;;;22.29;26.15
80781;BME280;70341;56.408;10.874;2023-05-29T09:02:40;102448.15;;;22.52;26.29
80781;BME280;70341;56.408;10.874;2023-05-29T09:05:07;102441.80;;;22.86;26.85
80781;BME280;70341;56.408;10.874;2023-05-29T09:07:34;102441.27;;;23.20;26.82
80781;BME280;70341;56.408;10.874;2023-05-29T09:10:02;102436.05;;;23.41;24.80
80781;BME280;70341;56.408;10.874;2023-05-29T09:12:30;102438.70;;;23.61;24.48
80781;BME280;70341;56.408;10.874;2023-05-29T09:14:57;102434.02;;;23.84;24.64
80781;BME280;70341;56.408;10.874;2023-05-29T09:17:30;102427.86;;;24.07;24.12
80781;BME280;70341;56.408;10.874;2023-05-29T09:19:58;102426.63;;;24.43;24.20
80781;BME280;70341;56.408;10.874;2023-05-29T09:22:25;102430.78;;;24.63;23.39
80781;BME280;70341;56.408;10.874;2023-05-29T09:24:53;102433.13;;;24.94;22.31
80781;BME280;70341;56.408;10.874;2023-05-29T09:27:21;102434.52;;;25.55;21.82
80781;BME280;70341;56.408;10.874;2023-05-29T09:29:48;102428.59;;;26.13;20.52
80781;BME280;70341;56.408;10.874;2023-05-29T09:32:18;102427.70;;;26.78;20.43
80781;BME280;70341;56.408;10.874;2023-05-29T09:34:45;102422.83;;;27.54;20.91
80781;BME280;70341;56.408;10.874;2023-05-29T09:37:13;102420.19;;;28.12;20.07
80781;BME280;70341;56.408;10.874;2023-05-29T09:39:47;102425.82;;;28.62;19.15
80781;BME280;70341;56.408;10.874;2023-05-29T09:42:16;102424.38;;;29.30;18.35
80781;BME280;70341;56.408;10.874;2023-05-29T09:44:50;102420.50;;;29.85;17.79
80781;BME280;70341;56.408;10.874;2023-05-29T09:47:20;102412.02;;;30.42;16.94
80781;BME280;70341;56.408;10.874;2023-05-29T09:49:49;102409.84;;;30.94;17.25
80781;BME280;70341;56.408;10.874;2023-05-29T09:52:21;102411.77;;;31.44;16.75
80781;BME280;70341;56.408;10.874;2023-05-29T09:54:49;102417.49;;;31.61;15.25
80781;BME280;70341;56.408;10.874;2023-05-29T09:57:17;102417.62;;;32.15;15.42
80781;BME280;70341;56.408;10.874;2023-05-29T09:59:44;102421.91;;;32.54;14.28
80781;BME280;70341;56.408;10.874;2023-05-29T10:02:11;102416.88;;;32.69;13.95
80781;BME280;70341;56.408;10.874;2023-05-29T10:04:39;102424.08;;;33.02;14.65
80781;BME280;70341;56.408;10.874;2023-05-29T10:09:47;102424.77;;;33.51;14.36
80781;BME280;70341;56.408;10.874;2023-05-29T10:12:20;102424.11;;;33.88;14.26
80781;BME280;70341;56.408;10.874;2023-05-29T10:14:51;102423.53;;;33.57;14.77
80781;BME280;70341;56.408;10.874;2023-05-29T10:17:26;102423.71;;;33.59;14.40
80781;BME280;70341;56.408;10.874;2023-05-29T10:20:01;102425.13;;;33.66;13.70
80781;BME280;70341;56.408;10.874;2023-05-29T10:22:31;102424.11;;;33.64;13.64
80781;BME280;70341;56.408;10.874;2023-05-29T10:24:59;102423.95;;;33.94;14.18
80781;BME280;70341;56.408;10.874;2023-05-29T10:27:26;102427.15;;;34.64;13.15
80781;BME280;70341;56.408;10.874;2023-05-29T10:30:12;102423.55;;;35.08;12.52
80781;BME280;70341;56.408;10.874;2023-05-29T10:38:31;102409.45;;;35.71;12.11
80781;BME280;70341;56.408;10.874;2023-05-29T10:43:58;102409.98;;;36.76;12.13
80781;BME280;70341;56.408;10.874;2023-05-29T10:49:21;102414.66;;;37.35;11.83
80781;BME280;70341;56.408;10.874;2023-05-29T10:51:51;102412.15;;;37.70;11.70
80781;BME280;70341;56.408;10.874;2023-05-29T10:54:26;102417.63;;;37.91;10.95
80781;BME280;70341;56.408;10.874;2023-05-29T10:57:01;102418.16;;;37.84;10.85
80781;BME280;70341;56.408;10.874;2023-05-29T10:59:36;102418.36;;;37.78;10.05
80781;BME280;70341;56.408;10.874;2023-05-29T11:02:04;102418.66;;;38.03;10.96
80781;BME280;70341;56.408;10.874;2023-05-29T11:04:32;102421.19;;;38.46;10.39
80781;BME280;70341;56.408;10.874;2023-05-29T11:07:01;102415.56;;;38.65;10.30
80781;BME280;70341;56.408;10.874;2023-05-29T11:09:38;102412.48;;;38.88;10.31
80781;BME280;70341;56.408;10.874;2023-05-29T11:12:25;102413.49;;;38.98;10.15
80781;BME280;70341;56.408;10.874;2023-05-29T11:15:11;102411.04;;;39.15;10.30
80781;BME280;70341;56.408;10.874;2023-05-29T11:20:16;102404.71;;;40.11;10.21
80781;BME280;70341;56.408;10.874;2023-05-29T11:23:03;102413.97;;;40.32;9.36
80781;BME280;70341;56.408;10.874;2023-05-29T11:25:35;102412.81;;;40.27;9.56
80781;BME280;70341;56.408;10.874;2023-05-29T11:28:04;102406.15;;;40.28;9.93
80781;BME280;70341;56.408;10.874;2023-05-29T11:30:41;102401.08;;;40.23;9.07
80781;BME280;70341;56.408;10.874;2023-05-29T11:33:13;102406.11;;;40.25;9.40
80781;BME280;70341;56.408;10.874;2023-05-29T11:35:42;102406.86;;;40.20;9.11
80781;BME280;70341;56.408;10.874;2023-05-29T11:38:09;102404.21;;;40.11;9.23
80781;BME280;70341;56.408;10.874;2023-05-29T11:40:36;102399.51;;;40.19;9.54
80781;BME280;70341;56.408;10.874;2023-05-29T11:43:04;102398.40;;;40.40;9.68
80781;BME280;70341;56.408;10.874;2023-05-29T11:45:32;102397.30;;;40.65;9.01
80781;BME280;70341;56.408;10.874;2023-05-29T11:48:02;102398.60;;;40.85;9.35
80781;BME280;70341;56.408;10.874;2023-05-29T11:50:32;102400.38;;;41.20;9.51
80781;BME280;70341;56.408;10.874;2023-05-29T11:52:59;102405.42;;;41.48;9.18
80781;BME280;70341;56.408;10.874;2023-05-29T11:55:27;102398.86;;;41.39;8.99
80781;BME280;70341;56.408;10.874;2023-05-29T11:57:59;102400.70;;;41.16;8.94
80781;BME280;70341;56.408;10.874;2023-05-29T12:00:35;102398.67;;;41.16;8.97
80781;BME280;70341;56.408;10.874;2023-05-29T12:03:06;102404.82;;;40.92;9.43
80781;BME280;70341;56.408;10.874;2023-05-29T12:05:49;102397.41;;;40.84;9.23
80781;BME280;70341;56.408;10.874;2023-05-29T12:08:22;102400.21;;;40.55;9.30
80781;BME280;70341;56.408;10.874;2023-05-29T12:10:52;102408.17;;;40.56;9.91
80781;BME280;70341;56.408;10.874;2023-05-29T12:13:22;102411.44;;;40.32;9.49
80781;BME280;70341;56.408;10.874;2023-05-29T12:15:58;102414.52;;;40.39;9.56
80781;BME280;70341;56.408;10.874;2023-05-29T12:18:28;102406.95;;;40.37;9.76
80781;BME280;70341;56.408;10.874;2023-05-29T12:21:02;102399.02;;;40.68;9.79
80781;BME280;70341;56.408;10.874;2023-05-29T12:23:30;102400.17;;;41.09;9.23
80781;BME280;70341;56.408;10.874;2023-05-29T12:25:59;102402.48;;;41.36;9.12
80781;BME280;70341;56.408;10.874;2023-05-29T12:28:28;102402.09;;;41.69;8.93
80781;BME280;70341;56.408;10.874;2023-05-29T12:30:59;102399.27;;;41.97;9.15
80781;BME280;70341;56.408;10.874;2023-05-29T12:33:32;102400.90;;;42.29;8.90
80781;BME280;70341;56.408;10.874;2023-05-29T12:36:09;102394.68;;;42.41;8.53
80781;BME280;70341;56.408;10.874;2023-05-29T12:38:51;102391.73;;;41.91;8.77
80781;BME280;70341;56.408;10.874;2023-05-29T12:41:28;102395.77;;;41.97;8.80
80781;BME280;70341;56.408;10.874;2023-05-29T12:43:57;102394.39;;;42.10;8.61
80781;BME280;70341;56.408;10.874;2023-05-29T12:46:25;102398.27;;;41.82;8.44
80781;BME280;70341;56.408;10.874;2023-05-29T12:48:54;102388.14;;;41.69;9.11
80781;BME280;70341;56.408;10.874;2023-05-29T12:51:26;102394.95;;;41.97;8.76
80781;BME280;70341;56.408;10.874;2023-05-29T12:53:53;102396.38;;;42.12;8.81
80781;BME280;70341;56.408;10.874;2023-05-29T12:56:22;102393.13;;;42.23;8.83
80781;BME280;70341;56.408;10.874;2023-05-29T12:58:52;102394.11;;;42.30;8.73
80781;BME280;70341;56.408;10.874;2023-05-29T13:01:19;102396.52;;;42.20;8.69
80781;BME280;70341;56.408;10.874;2023-05-29T13:03:50;102394.39;;;42.17;8.89
80781;BME280;70341;56.408;10.874;2023-05-29T13:06:26;102395.23;;;42.19;8.59
80781;BME280;70341;56.408;10.874;2023-05-29T13:08:53;102398.84;;;42.32;8.68
80781;BME280;70341;56.408;10.874;2023-05-29T13:11:20;102397.49;;;42.49;8.35
80781;BME280;70341;56.408;10.874;2023-05-29T13:13:49;102394.10;;;42.32;8.69